createdAt,value
2023-05-17T00:07:32.019Z,101244.38
2023-05-17T00:17:34.280Z,101240.22
2023-05-17T00:27:36.561Z,101249.78
2023-05-17T00:37:38.667Z,101264.19
2023-05-17T00:47:40.959Z,101252.56
2023-05-17T00:57:43.192Z,101253.63
2023-05-17T01:07:45.350Z,101248.00
2023-05-17T01:17:59.107Z,101256.41
2023-05-17T01:28:02.675Z,101258.13
2023-05-17T01:38:04.789Z,101268.81
2023-05-17T01:48:28.892Z,101271.56
2023-05-17T01:58:40.631Z,101278.63
2023-05-17T02:08:43.130Z,101284.19
2023-05-17T02:18:45.573Z,101292.09
2023-05-17T02:28:48.043Z,101296.56
2023-05-17T02:38:50.662Z,101297.13
2023-05-17T02:48:52.827Z,101304.38
2023-05-17T02:58:57.485Z,101314.19
2023-05-17T03:08:59.604Z,101320.66
2023-05-17T03:19:02.119Z,101322.31
2023-05-17T03:29:05.158Z,101331.84
2023-05-17T03:39:07.976Z,101341.03
2023-05-17T03:49:12.124Z,101341.88
2023-05-17T03:59:15.842Z,101357.22
2023-05-17T04:09:21.233Z,101358.97
2023-05-17T04:19:23.676Z,101366.44
2023-05-17T04:29:26.448Z,101382.13
2023-05-17T04:39:30.746Z,101396.88
2023-05-17T04:49:34.535Z,101407.59
2023-05-17T04:59:37.597Z,101414.50
2023-05-17T05:09:40.772Z,101420.38
2023-05-17T05:19:45.732Z,101431.22
2023-05-17T05:29:48.934Z,101442.50
2023-05-17T05:39:52.588Z,101461.34
2023-05-17T05:49:55.321Z,101475.69
2023-05-17T05:59:59.452Z,101478.50
2023-05-17T06:10:01.870Z,101492.50
2023-05-17T06:20:05.176Z,101495.34
2023-05-17T06:30:08.138Z,101505.88
2023-05-17T06:40:16.604Z,101507.34
2023-05-17T06:50:19.340Z,101503.00
2023-05-17T07:00:22.037Z,101506.09
2023-05-17T07:10:24.172Z,101512.91
2023-05-17T07:20:26.329Z,101515.53
2023-05-17T07:30:28.488Z,101525.41
2023-05-17T07:40:30.717Z,101534.00
2023-05-17T07:50:33.027Z,101542.06
2023-05-17T08:00:35.166Z,101543.81
2023-05-17T08:10:38.034Z,101548.91
2023-05-17T08:20:40.216Z,101550.94
2023-05-17T08:30:42.421Z,101563.72
2023-05-17T08:40:44.537Z,101569.38
2023-05-17T08:50:47.442Z,101572.44
2023-05-17T09:00:50.044Z,101574.75
2023-05-17T09:10:52.200Z,101581.78
2023-05-17T09:20:54.335Z,101569.78
2023-05-17T09:30:56.611Z,101563.34
2023-05-17T09:41:02.534Z,101574.44
2023-05-17T09:51:05.997Z,101564.72
2023-05-17T10:01:09.726Z,101564.50
2023-05-17T10:11:11.983Z,101557.50
2023-05-17T10:21:14.438Z,101561.56
2023-05-17T10:31:17.376Z,101540.94
2023-05-17T10:41:21.891Z,101548.63
2023-05-17T10:51:26.506Z,101548.28
2023-05-17T11:02:00.832Z,101543.84
2023-05-17T11:12:08.095Z,101529.59
2023-05-17T11:22:12.291Z,101546.16
2023-05-17T11:32:14.545Z,101533.78
2023-05-17T11:42:25.340Z,101535.50
2023-05-17T11:52:29.220Z,101529.19
2023-05-17T12:02:32.388Z,101538.94
2023-05-17T12:12:34.600Z,101524.03
2023-05-17T12:22:54.937Z,101514.06
2023-05-17T12:32:57.268Z,101530.56
2023-05-17T12:43:05.855Z,101525.22
2023-05-17T12:53:09.058Z,101535.38
2023-05-17T13:03:11.656Z,101531.50
2023-05-17T13:13:20.437Z,101518.19
2023-05-17T13:23:22.600Z,101522.34
2023-05-17T13:33:24.860Z,101515.78
2023-05-17T13:43:27.157Z,101507.84
2023-05-17T13:53:29.533Z,101501.78
2023-05-17T14:03:31.882Z,101505.28
2023-05-17T14:13:34.264Z,101494.09
2023-05-17T14:23:36.406Z,101496.75
2023-05-17T14:33:38.654Z,101493.72
2023-05-17T14:43:40.950Z,101485.66
2023-05-17T14:53:43.211Z,101487.16
2023-05-17T15:03:45.446Z,101500.41
2023-05-17T15:13:48.761Z,101499.94
2023-05-17T15:23:51.087Z,101490.06
2023-05-17T15:33:53.254Z,101492.88
2023-05-17T15:43:55.429Z,101494.78
2023-05-17T15:53:57.602Z,101500.28
2023-05-17T16:03:59.836Z,101500.97
2023-05-17T16:14:02.118Z,101495.78
2023-05-17T16:24:06.510Z,101500.13
2023-05-17T16:34:08.880Z,101513.75
2023-05-17T16:44:11.140Z,101512.22
2023-05-17T16:54:13.292Z,101521.16
2023-05-17T17:04:15.604Z,101529.84
2023-05-17T17:14:18.006Z,101526.94
2023-05-17T17:24:20.426Z,101529.38
2023-05-17T17:34:22.580Z,101535.38
2023-05-17T17:44:24.755Z,101542.13
2023-05-17T17:54:27.000Z,101541.16
2023-05-17T18:04:29.180Z,101546.59
2023-05-17T18:14:31.446Z,101550.38
2023-05-17T18:24:33.602Z,101551.81
2023-05-17T18:34:36.223Z,101567.75
2023-05-17T18:44:41.368Z,101553.16
2023-05-17T18:54:43.922Z,101560.06
2023-05-17T19:04:46.151Z,101565.09
2023-05-17T19:14:48.274Z,101577.09
2023-05-17T19:24:50.728Z,101583.94
2023-05-17T19:34:53.329Z,101583.56
2023-05-17T19:44:55.607Z,101594.69
2023-05-17T19:54:57.693Z,101596.81
2023-05-17T20:05:02.192Z,101606.09
2023-05-17T20:15:06.227Z,101601.41
2023-05-17T20:25:08.934Z,101616.00
2023-05-17T20:35:11.430Z,101619.84
2023-05-17T20:45:17.739Z,101625.69
2023-05-17T20:55:19.961Z,101625.13
2023-05-17T21:05:22.032Z,101624.16
2023-05-17T21:15:24.941Z,101630.94
2023-05-17T21:25:27.124Z,101628.13
2023-05-17T21:35:29.738Z,101636.56
2023-05-17T21:45:31.906Z,101639.38
2023-05-17T21:55:41.249Z,101648.91
2023-05-17T22:05:56.233Z,101631.53
2023-05-17T22:15:58.324Z,101652.56
2023-05-17T22:26:00.664Z,101643.84
2023-05-17T22:36:03.692Z,101649.19
2023-05-17T22:46:06.197Z,101656.72
2023-05-17T22:56:08.299Z,101658.41
2023-05-17T23:06:10.694Z,101663.13
2023-05-17T23:16:13.939Z,101661.72
2023-05-17T23:26:17.192Z,101660.91
2023-05-17T23:36:21.639Z,101664.25
2023-05-17T23:46:23.843Z,101675.31
2023-05-17T23:56:26.605Z,101665.91
